Time;durP1;ratioP1;P1;durP2;ratioP2;P2;SDS_P1;SDS_P2;PMS_P1;PMS_P2;Temp;Humidity;BMP_temperature;BMP_pressure;BME280_temperature;BME280_humidity;BME280_pressure;Samples;Min_cycle;Max_cycle;Signal;HPM_P1;HPM_P2
2023/01/04 00:01:23;;;;;;;13.63;2.78;;;;;;;11.39;100.00;99479.59;5067099;28;20397;-50
2023/01/04 00:03:50;;;;;;;16.40;2.47;;;;;;;11.39;100.00;99493.47;5067951;28;20380;-48
2023/01/04 00:06:18;;;;;;;11.88;2.30;;;;;;;11.37;100.00;99498.59;5067925;28;20075;-46
2023/01/04 00:08:45;;;;;;;11.68;2.20;;;;;;;11.36;100.00;99488.69;5067920;28;20041;-46
2023/01/04 00:11:18;;;;;;;13.60;2.75;;;;;;;11.36;100.00;99494.22;5067637;28;20604;-47
2023/01/04 00:13:46;;;;;;;13.32;3.22;;;;;;;11.35;100.00;99486.31;5067668;28;20517;-46
2023/01/04 00:16:16;;;;;;;19.42;2.90;;;;;;;11.35;100.00;99503.72;5050815;28;20052;-49
2023/01/04 00:18:43;;;;;;;8.38;3.10;;;;;;;11.36;100.00;99510.03;5059713;28;20135;-47
2023/01/04 00:21:09;;;;;;;12.05;3.00;;;;;;;11.35;100.00;99500.97;5067240;28;20048;-46
2023/01/04 00:23:38;;;;;;;16.42;4.63;;;;;;;11.33;100.00;99494.97;5060603;28;20041;-48
2023/01/04 00:26:10;;;;;;;9.20;2.53;;;;;;;11.32;100.00;99498.94;5054515;28;20386;-46
2023/01/04 00:28:37;;;;;;;18.52;2.92;;;;;;;11.32;100.00;99489.84;5066981;28;20053;-47
2023/01/04 00:31:06;;;;;;;7.75;2.13;;;;;;;11.31;100.00;99491.00;5067604;28;20040;-46
2023/01/04 00:33:33;;;;;;;12.48;4.70;;;;;;;11.30;100.00;99484.69;5070618;28;20394;-52
2023/01/04 00:36:05;;;;;;;13.10;3.08;;;;;;;11.30;100.00;99512.38;5067499;28;20060;-49
2023/01/04 00:38:33;;;;;;;8.88;2.97;;;;;;;11.33;100.00;99516.38;5067011;28;20055;-47
2023/01/04 00:41:00;;;;;;;8.95;2.92;;;;;;;11.32;100.00;99521.13;5067234;28;20056;-45
2023/01/04 00:43:28;;;;;;;16.05;2.92;;;;;;;11.30;100.00;99514.34;5066929;28;20044;-46
2023/01/04 00:45:54;;;;;;;8.30;2.33;;;;;;;11.29;100.00;99516.31;5049279;28;20036;-46
2023/01/04 00:48:22;;;;;;;6.82;1.98;;;;;;;11.29;100.00;99516.31;5066871;28;20086;-49
2023/01/04 00:50:49;;;;;;;14.25;2.33;;;;;;;11.30;100.00;99531.78;5058373;28;20048;-46
2023/01/04 00:53:17;;;;;;;13.75;2.28;;;;;;;11.33;100.00;99521.91;5067326;28;20044;-53
2023/01/04 00:55:44;;;;;;;11.27;3.67;;;;;;;11.34;100.00;99524.28;5066809;28;20052;-48
2023/01/04 00:58:11;;;;;;;11.23;3.05;;;;;;;11.34;100.00;99524.28;5066674;28;20041;-46
2023/01/04 01:00:39;;;;;;;16.63;2.47;;;;;;;11.33;100.00;99535.78;5066883;28;20485;-46
2023/01/04 01:03:05;;;;;;;8.73;2.55;;;;;;;11.29;100.00;99549.56;5066506;28;20051;-48
2023/01/04 01:05:34;;;;;;;10.07;3.00;;;;;;;11.25;100.00;99545.94;5067158;28;20127;-47
2023/01/04 01:10:47;;;;;;;15.85;4.07;;;;;;;11.19;100.00;99550.25;5066476;28;20044;-47
2023/01/04 01:13:14;;;;;;;12.32;3.03;;;;;;;11.17;100.00;99557.34;5065853;28;20075;-53
2023/01/04 01:15:40;;;;;;;11.40;3.63;;;;;;;11.13;100.00;99579.47;5066511;28;20060;-51
2023/01/04 01:18:07;;;;;;;17.17;2.90;;;;;;;11.10;100.00;99580.22;5066164;28;20387;-54
2023/01/04 01:20:34;;;;;;;23.83;3.53;;;;;;;11.06;100.00;99573.84;5066661;28;20489;-47
2023/01/04 01:23:00;;;;;;;24.17;3.13;;;;;;;11.05;100.00;99583.31;5064816;28;20055;-47
2023/01/04 01:25:27;;;;;;;13.90;2.60;;;;;;;11.03;100.00;99574.59;5060869;28;20044;-46
2023/01/04 01:27:54;;;;;;;14.55;3.25;;;;;;;11.01;100.00;99582.50;5066606;28;20508;-46
2023/01/04 01:30:20;;;;;;;12.02;2.85;;;;;;;10.97;100.00;99599.03;5066948;28;20063;-47
2023/01/04 01:32:47;;;;;;;17.40;3.97;;;;;;;10.98;100.00;99608.97;5066477;28;20067;-46
2023/01/04 01:35:14;;;;;;;16.23;3.25;;;;;;;10.98;100.00;99594.31;5061285;28;20067;-46
2023/01/04 01:37:40;;;;;;;14.00;2.92;;;;;;;10.96;100.00;99578.06;5066651;28;20048;-47
2023/01/04 01:40:08;;;;;;;10.70;2.60;;;;;;;10.94;100.00;99599.78;5065835;28;20052;-46
2023/01/04 01:42:34;;;;;;;19.23;3.65;;;;;;;10.93;99.90;99598.19;5066831;28;20048;-47
2023/01/04 01:45:09;;;;;;;24.73;4.88;;;;;;;10.91;99.65;99602.50;5048367;28;20410;-47
2023/01/04 01:47:44;;;;;;;18.85;3.63;;;;;;;10.86;99.69;99611.13;5047625;28;20132;-47
2023/01/04 01:50:30;;;;;;;15.95;3.80;;;;;;;10.82;99.46;99621.38;5066176;28;20044;-47
2023/01/04 01:52:59;;;;;;;20.17;3.60;;;;;;;10.79;99.44;99611.06;5066606;28;20041;-47
2023/01/04 01:55:29;;;;;;;10.73;3.50;;;;;;;10.75;99.22;99612.97;5066511;28;20052;-47
2023/01/04 01:57:57;;;;;;;13.60;3.20;;;;;;;10.71;99.23;99607.38;5065308;28;20055;-52
2023/01/04 02:00:24;;;;;;;11.13;2.47;;;;;;;10.68;99.31;99635.00;5066937;28;20162;-48
2023/01/04 02:03:18;;;;;;;24.23;3.85;;;;;;;10.65;99.01;99624.66;5066853;28;20057;-53
2023/01/04 02:05:48;;;;;;;19.83;5.43;;;;;;;10.62;99.05;99625.41;5066543;28;20044;-52
2023/01/04 02:08:17;;;;;;;10.30;3.85;;;;;;;10.57;98.86;99634.03;5066470;28;20385;-48
2023/01/04 02:10:44;;;;;;;16.40;3.42;;;;;;;10.56;98.67;99643.53;5066543;28;20052;-51
2023/01/04 02:13:14;;;;;;;27.08;5.72;;;;;;;10.56;98.85;99646.28;5066222;28;20041;-46
2023/01/04 02:15:51;;;;;;;19.65;3.78;;;;;;;10.55;98.74;99641.91;5065331;28;20052;-53
2023/01/04 02:18:27;;;;;;;26.38;3.53;;;;;;;10.53;98.63;99641.50;5065874;28;20045;-47
2023/01/04 02:21:14;;;;;;;26.33;4.20;;;;;;;10.51;98.38;99630.00;5066292;28;20095;-47
2023/01/04 02:23:52;;;;;;;12.80;2.75;;;;;;;10.47;98.56;99632.72;5058519;28;20056;-48
2023/01/04 02:27:00;;;;;;;30.25;5.15;;;;;;;10.43;98.47;99636.59;5039371;28;20040;-46
2023/01/04 02:29:28;;;;;;;24.17;3.55;;;;;;;10.42;98.34;99626.69;5046003;28;20048;-47
2023/01/04 02:32:05;;;;;;;14.18;2.95;;;;;;;10.38;98.40;99621.91;5068703;28;20513;-48
2023/01/04 02:34:57;;;;;;;19.25;3.80;;;;;;;10.39;98.64;99633.78;5070331;28;20417;-49
2023/01/04 02:37:40;;;;;;;20.33;4.05;;;;;;;10.38;98.44;99630.19;5065853;28;20491;-47
2023/01/04 02:40:22;;;;;;;20.45;4.57;;;;;;;10.38;98.60;99627.44;5069719;28;20087;-56
2023/01/04 02:46:11;;;;;;;22.40;4.93;;;;;;;10.35;98.40;99630.94;5052446;28;20128;-53
2023/01/04 02:51:32;;;;;;;14.68;3.58;;;;;;;10.40;98.43;99638.91;5069162;28;20051;-47
2023/01/04 02:54:07;;;;;;;19.98;3.40;;;;;;;10.44;98.24;99635.41;5068958;28;20041;-48
2023/01/04 02:56:46;;;;;;;17.55;4.30;;;;;;;10.47;98.34;99631.91;5069023;28;20052;-55
2023/01/04 02:59:31;;;;;;;18.33;3.72;;;;;;;10.47;98.03;99612.53;5068994;28;20446;-46
2023/01/04 03:08:11;;;;;;;10.70;3.05;;;;;;;10.36;98.11;99607.66;5048165;28;20041;-47
2023/01/04 03:10:41;;;;;;;12.35;2.55;;;;;;;10.33;98.43;99602.84;5049223;28;20466;-47
2023/01/04 03:13:16;;;;;;;22.58;4.60;;;;;;;10.31;98.23;99604.38;5048962;28;20355;-54
2023/01/04 03:15:59;;;;;;;23.95;3.28;;;;;;;10.28;98.28;99611.47;5048877;28;20071;-46
2023/01/04 03:18:30;;;;;;;14.38;3.75;;;;;;;10.25;98.55;99612.19;5038445;28;20487;-49
2023/01/04 03:21:00;;;;;;;14.93;3.13;;;;;;;10.23;98.58;99597.94;5047678;28;20491;-50
2023/01/04 03:35:22;;;;;;;25.60;5.03;;;;;;;10.27;98.55;99632.00;5053156;28;20060;-54
2023/01/04 03:49:45;;;;;;;16.85;3.75;;;;;;;10.43;98.15;99639.38;5048008;28;20049;-48
2023/01/04 03:52:14;;;;;;;21.95;4.93;;;;;;;10.44;98.30;99649.25;5048266;28;20110;-47
2023/01/04 03:54:46;;;;;;;21.17;3.80;;;;;;;10.45;97.83;99642.56;5047851;28;20059;-47
2023/01/04 03:57:15;;;;;;;18.50;3.75;;;;;;;10.49;97.72;99648.94;5047440;28;20045;-47
2023/01/04 03:59:52;;;;;;;18.85;5.15;;;;;;;10.53;97.36;99630.44;5048054;28;20040;-47
2023/01/04 04:02:23;;;;;;;31.27;4.65;;;;;;;10.57;97.01;99650.66;5047896;28;20057;-55
2023/01/04 04:10:21;;;;;;;22.20;3.78;;;;;;;10.61;96.50;99663.38;5047727;28;20406;-50
2023/01/04 04:12:48;;;;;;;16.27;3.72;;;;;;;10.62;96.42;99664.16;5047382;28;20519;-47
2023/01/04 04:15:15;;;;;;;13.90;3.42;;;;;;;10.61;96.20;99662.59;5039199;28;20558;-48
2023/01/04 04:17:41;;;;;;;18.38;3.75;;;;;;;10.60;95.82;99677.59;5058361;28;20394;-50
2023/01/04 04:20:09;;;;;;;25.08;5.50;;;;;;;10.59;95.76;99653.88;5046231;28;20040;-49
2023/01/04 04:22:36;;;;;;;16.55;3.92;;;;;;;10.61;95.77;99676.41;5045049;28;20521;-47
2023/01/04 04:25:02;;;;;;;23.88;4.53;;;;;;;10.61;95.67;99673.66;5047598;28;20041;-54
2023/01/04 04:27:29;;;;;;;22.48;4.07;;;;;;;10.62;95.48;99683.53;5047219;28;20041;-48
2023/01/04 04:29:56;;;;;;;18.73;3.92;;;;;;;10.62;95.09;99686.31;5045468;28;20129;-49
2023/01/04 04:32:23;;;;;;;39.80;6.20;;;;;;;10.62;94.92;99675.22;5047141;28;20071;-53
2023/01/04 04:34:49;;;;;;;20.27;3.55;;;;;;;10.60;94.66;99683.13;5050242;28;20049;-48
2023/01/04 04:37:16;;;;;;;20.65;4.10;;;;;;;10.60;94.73;99694.19;5045701;28;20497;-48
2023/01/04 04:39:42;;;;;;;24.48;4.15;;;;;;;10.57;94.60;99694.94;5046077;28;20102;-47
2023/01/04 04:42:09;;;;;;;27.80;4.32;;;;;;;10.54;94.31;99698.47;5047054;28;20063;-48
2023/01/04 04:44:36;;;;;;;20.15;4.47;;;;;;;10.52;94.43;99686.94;5047355;28;20433;-47
2023/01/04 04:47:02;;;;;;;14.02;3.55;;;;;;;10.46;94.11;99714.13;5046001;28;20037;-48
2023/01/04 04:49:29;;;;;;;18.42;3.72;;;;;;;10.41;93.65;99703.38;5046410;28;20056;-49
2023/01/04 04:51:56;;;;;;;23.30;3.55;;;;;;;10.37;93.46;99695.03;5047160;28;20056;-48
2023/01/04 04:54:22;;;;;;;21.27;5.05;;;;;;;10.33;93.11;99707.97;5047296;28;20079;-52
2023/01/04 04:56:49;;;;;;;14.60;3.47;;;;;;;10.32;93.08;99714.69;5047203;28;20387;-48
2023/01/04 04:59:16;;;;;;;23.08;4.72;;;;;;;10.32;93.15;99711.13;5046921;28;20040;-48
2023/01/04 05:01:43;;;;;;;14.50;3.35;;;;;;;10.30;92.83;99710.66;5046694;28;20063;-47
2023/01/04 05:04:15;;;;;;;15.82;4.15;;;;;;;10.28;93.15;99711.06;5046485;28;20144;-46
2023/01/04 05:06:42;;;;;;;;;;;;;;;10.23;92.42;99725.19;5046551;28;20045;-46
2023/01/04 05:09:10;;;;;;;21.52;3.63;;;;;;;10.23;92.66;99718.84;5046898;28;19967;-44
2023/01/04 05:14:22;;;;;;;28.80;5.20;;;;;;;10.20;92.57;99730.66;5046934;28;20063;-46
2023/01/04 05:16:48;;;;;;;23.42;4.68;;;;;;;10.19;92.42;99731.84;5054539;28;20059;-52
2023/01/04 05:19:15;;;;;;;16.63;3.85;;;;;;;10.20;92.34;99736.19;5051231;28;20132;-45
2023/01/04 05:21:42;;;;;;;22.65;4.95;;;;;;;10.20;92.40;99744.47;5039640;28;20053;-47
2023/01/04 05:24:12;;;;;;;19.02;4.20;;;;;;;10.18;92.23;99753.16;5046591;28;20048;-47
2023/01/04 05:26:39;;;;;;;18.67;3.58;;;;;;;10.17;92.32;99754.31;5047043;28;20052;-47
2023/01/04 05:30:49;;;;;;;24.25;7.10;;;;;;;10.19;91.91;99746.44;5046901;28;20068;-52
2023/01/04 05:31:54;;;;;;;20.02;3.88;;;;;;;10.16;91.89;99761.03;5047015;28;20055;-46
2023/01/04 05:34:21;;;;;;;21.23;3.63;;;;;;;10.13;91.90;99756.22;5052150;28;20131;-46
2023/01/04 05:36:48;;;;;;;19.83;4.72;;;;;;;10.10;91.82;99765.22;5044590;28;20048;-45
2023/01/04 05:39:14;;;;;;;15.52;3.28;;;;;;;10.08;92.14;99770.31;5045911;28;20047;-45
2023/01/04 05:44:26;;;;;;;23.52;3.95;;;;;;;10.04;91.73;99780.50;5046081;28;20083;-52
2023/01/04 05:47:02;;;;;;;18.50;6.18;;;;;;;10.02;91.59;99771.78;5045348;28;20465;-47
2023/01/04 05:49:28;;;;;;;19.00;4.05;;;;;;;10.01;91.96;99777.66;5046097;28;20091;-46
2023/01/04 05:51:55;;;;;;;20.80;4.95;;;;;;;9.99;91.55;99777.22;5046451;28;20045;-45
2023/01/04 05:54:22;;;;;;;21.88;4.75;;;;;;;9.97;91.71;99783.13;5046615;28;20049;-45
2023/01/04 05:56:48;;;;;;;21.80;4.65;;;;;;;9.98;91.64;99789.47;5045492;28;20049;-49
2023/01/04 05:59:15;;;;;;;16.90;3.65;;;;;;;9.98;91.84;99793.00;5046681;28;20076;-46
2023/01/04 06:01:42;;;;;;;26.90;5.35;;;;;;;9.97;91.86;99808.00;5049847;28;20059;-51
2023/01/04 06:04:09;;;;;;;21.40;4.25;;;;;;;9.99;91.77;99808.44;5050463;28;20049;-46
2023/01/04 06:06:35;;;;;;;20.73;5.10;;;;;;;10.01;92.09;99810.84;5049830;28;20402;-46
2023/01/04 06:09:02;;;;;;;21.10;4.20;;;;;;;10.02;91.92;99817.97;5049999;28;20498;-45
2023/01/04 06:11:29;;;;;;;35.42;9.68;;;;;;;10.01;92.04;99811.63;5049830;28;20046;-45
2023/01/04 06:13:55;;;;;;;24.48;5.47;;;;;;;10.01;92.10;99811.63;5049201;28;20092;-45
2023/01/04 06:16:22;;;;;;;16.25;3.85;;;;;;;10.02;92.27;99812.44;5054252;28;20067;-45
2023/01/04 06:18:49;;;;;;;24.15;4.68;;;;;;;10.01;92.18;99828.22;5056767;28;20084;-46
2023/01/04 06:21:16;;;;;;;22.15;4.38;;;;;;;10.01;92.51;99808.88;5045343;28;20099;-44
2023/01/04 06:23:42;;;;;;;30.52;4.72;;;;;;;10.01;92.57;99824.66;5042121;28;20388;-48
2023/01/04 06:26:09;;;;;;;23.98;5.05;;;;;;;10.01;92.85;99827.41;5045762;28;20037;-46
2023/01/04 06:28:36;;;;;;;21.23;6.35;;;;;;;10.02;93.21;99829.84;5049292;28;20049;-51
2023/01/04 06:31:08;;;;;;;30.17;5.13;;;;;;;10.03;93.12;99825.94;5048448;28;20063;-46
2023/01/04 06:33:35;;;;;;;25.30;5.38;;;;;;;10.02;93.17;99840.09;5054681;28;20075;-45
2023/01/04 06:36:02;;;;;;;21.92;4.85;;;;;;;9.99;93.41;99813.16;5050106;28;20437;-46
2023/01/04 06:38:29;;;;;;;28.38;5.03;;;;;;;9.94;93.50;99822.56;5049228;28;20056;-46
2023/01/04 06:40:56;;;;;;;24.33;6.03;;;;;;;9.92;93.66;99813.03;5049831;28;20041;-45
2023/01/04 06:43:23;;;;;;;30.23;5.95;;;;;;;9.92;93.87;99819.38;5048978;28;20120;-46
2023/01/04 06:45:50;;;;;;;27.98;5.00;;;;;;;9.91;93.99;99815.00;5048883;28;20307;-46
2023/01/04 06:48:17;;;;;;;19.00;4.07;;;;;;;9.91;93.77;99816.94;5049302;28;20506;-46
2023/01/04 06:50:44;;;;;;;18.35;4.72;;;;;;;9.90;93.80;99818.91;5049504;28;20486;-45
2023/01/04 06:53:11;;;;;;;21.67;4.15;;;;;;;9.91;93.78;99825.25;5048996;28;20048;-49
2023/01/04 06:55:37;;;;;;;33.78;7.35;;;;;;;9.92;93.58;99841.47;5048000;28;20430;-48
2023/01/04 06:58:04;;;;;;;25.40;6.55;;;;;;;9.94;93.46;99828.09;5049156;28;20049;-45
2023/01/04 07:00:31;;;;;;;25.05;4.60;;;;;;;9.98;93.59;99834.47;5049296;28;20051;-48
2023/01/04 07:02:57;;;;;;;20.90;5.22;;;;;;;9.96;93.26;99845.09;5047808;28;20053;-45
2023/01/04 07:05:40;;;;;;;27.17;5.25;;;;;;;9.98;93.39;99851.06;5049068;28;20052;-55
2023/01/04 07:08:08;;;;;;;21.08;5.82;;;;;;;9.95;93.20;99838.00;5048813;28;20052;-45
2023/01/04 07:10:35;;;;;;;14.90;3.70;;;;;;;9.95;93.16;99846.28;5047090;28;20051;-46
2023/01/04 07:13:02;;;;;;;27.77;4.38;;;;;;;9.97;93.30;99870.81;5048229;28;20052;-48
2023/01/04 07:15:29;;;;;;;13.48;3.78;;;;;;;9.92;93.12;99852.53;5048926;28;20173;-46
2023/01/04 07:18:07;;;;;;;16.17;4.35;;;;;;;9.90;93.04;99863.13;5060129;28;20040;-46
2023/01/04 07:20:34;;;;;;;23.85;4.38;;;;;;;9.89;92.92;99852.47;5045586;28;20067;-44
2023/01/04 07:23:01;;;;;;;16.30;3.85;;;;;;;9.91;92.55;99869.47;5048963;28;20041;-46
2023/01/04 07:25:27;;;;;;;20.50;3.35;;;;;;;9.92;92.45;99865.56;5047521;28;20049;-44
2023/01/04 07:27:54;;;;;;;27.42;3.95;;;;;;;9.94;92.54;99855.75;5048719;28;20049;-48
2023/01/04 07:30:22;;;;;;;21.77;4.10;;;;;;;9.95;92.49;99862.06;5047167;28;20055;-47
2023/01/04 07:32:53;;;;;;;22.20;4.40;;;;;;;9.95;92.62;99879.47;5048725;28;20056;-47
2023/01/04 07:35:21;;;;;;;13.25;3.28;;;;;;;9.95;92.45;99884.19;5053011;28;20049;-46
2023/01/04 07:37:48;;;;;;;20.58;5.22;;;;;;;9.93;92.83;99876.25;5047665;28;20041;-48
2023/01/04 07:40:23;;;;;;;23.23;5.50;;;;;;;9.94;92.58;99899.97;5048218;28;20041;-45
2023/01/04 07:42:55;;;;;;;22.02;4.00;;;;;;;9.94;92.81;99899.97;5047532;28;20526;-45
2023/01/04 07:45:22;;;;;;;17.08;4.65;;;;;;;9.93;92.73;99892.84;5048367;28;20075;-46
2023/01/04 07:47:49;;;;;;;22.77;4.22;;;;;;;9.95;92.91;99890.53;5048790;28;20496;-45
2023/01/04 07:50:16;;;;;;;18.92;3.90;;;;;;;9.94;93.03;99908.28;5048120;28;20406;-45
2023/01/04 07:52:42;;;;;;;16.08;4.05;;;;;;;9.93;92.94;99908.66;5047879;28;20504;-46
2023/01/04 07:55:09;;;;;;;28.48;5.40;;;;;;;9.94;92.90;99911.03;5047265;28;20041;-46
2023/01/04 07:57:36;;;;;;;24.13;5.22;;;;;;;9.92;93.05;99902.31;5048244;28;20049;-49
2023/01/04 08:00:04;;;;;;;30.65;4.45;;;;;;;9.94;93.05;99899.16;5048106;28;20045;-49
2023/01/04 08:02:30;;;;;;;30.92;7.45;;;;;;;9.93;93.00;99914.94;5046846;28;20052;-45
2023/01/04 08:04:57;;;;;;;34.40;6.47;;;;;;;9.91;93.02;99897.94;5047880;28;20634;-51
2023/01/04 08:07:24;;;;;;;32.00;5.45;;;;;;;9.90;93.21;99915.66;5045905;28;20545;-46
2023/01/04 08:09:51;;;;;;;21.65;4.57;;;;;;;9.89;93.34;99908.56;5046991;28;20052;-49
2023/01/04 08:12:17;;;;;;;27.58;5.60;;;;;;;9.88;93.23;99912.47;5046878;28;20490;-44
2023/01/04 08:14:44;;;;;;;36.78;6.85;;;;;;;9.88;93.43;99906.94;5047804;28;20053;-45
2023/01/04 08:17:11;;;;;;;29.98;6.68;;;;;;;9.87;93.61;99916.41;5056296;28;20135;-46
2023/01/04 08:19:38;;;;;;;18.95;4.78;;;;;;;9.89;93.73;99905.78;5046483;28;20045;-45
2023/01/04 08:22:05;;;;;;;25.40;4.50;;;;;;;9.90;93.82;99921.19;5046812;28;20071;-53
2023/01/04 08:24:32;;;;;;;24.33;4.25;;;;;;;9.91;93.71;99920.06;5047753;28;20066;-45
2023/01/04 08:26:58;;;;;;;28.38;5.45;;;;;;;9.92;93.73;99907.03;5047389;28;20518;-45
2023/01/04 08:29:25;;;;;;;27.08;4.95;;;;;;;9.91;93.99;99922.81;5046105;28;20045;-49
2023/01/04 08:32:00;;;;;;;33.47;4.75;;;;;;;9.91;93.75;99911.75;5047728;28;20059;-45
2023/01/04 08:34:26;;;;;;;24.25;4.68;;;;;;;9.91;93.79;99927.53;5051437;28;20047;-50
2023/01/04 08:36:53;;;;;;;30.10;5.25;;;;;;;9.91;94.11;99950.47;5045818;28;20064;-46
2023/01/04 08:39:20;;;;;;;23.15;5.25;;;;;;;9.91;93.89;99938.59;5046245;28;20063;-45
2023/01/04 08:41:50;;;;;;;30.65;6.50;;;;;;;9.93;93.96;99956.44;5046158;28;20055;-47
2023/01/04 08:44:37;;;;;;;20.60;3.78;;;;;;;9.94;93.73;99943.41;5047060;28;20194;-56
2023/01/04 08:47:04;;;;;;;24.92;5.28;;;;;;;9.95;93.89;99954.13;5041446;28;20040;-47
2023/01/04 08:49:31;;;;;;;16.55;3.83;;;;;;;9.94;93.81;99949.75;5046188;28;20459;-44
2023/01/04 08:51:57;;;;;;;17.38;3.72;;;;;;;9.94;93.85;99962.75;5047187;28;20048;-48
2023/01/04 08:54:24;;;;;;;23.23;7.45;;;;;;;9.93;93.72;99969.47;5047003;28;20486;-45
2023/01/04 08:56:50;;;;;;;30.30;6.30;;;;;;;9.93;93.72;99980.53;5047231;28;20094;-47
2023/01/04 08:59:17;;;;;;;27.98;5.88;;;;;;;9.93;93.80;99986.84;5046227;28;20337;-46
2023/01/04 09:01:44;;;;;;;25.88;3.90;;;;;;;9.94;93.86;100004.25;5046921;28;20068;-48
2023/01/04 09:04:12;;;;;;;25.67;5.05;;;;;;;9.93;93.82;100000.66;5046300;28;20048;-46
2023/01/04 09:06:38;;;;;;;18.88;4.72;;;;;;;9.93;93.85;100008.97;5046845;28;20466;-46
2023/01/04 09:09:05;;;;;;;14.82;3.28;;;;;;;9.93;94.01;100008.97;5043106;28;20045;-51
2023/01/04 09:11:32;;;;;;;14.18;3.78;;;;;;;9.93;93.93;100017.25;5046064;28;20755;-48
2023/01/04 09:14:00;;;;;;;35.17;4.75;;;;;;;9.94;94.03;100010.56;5047347;28;20048;-51
2023/01/04 09:16:38;;;;;;;15.05;4.00;;;;;;;9.93;93.94;100022.78;5054448;28;20044;-48
2023/01/04 09:19:06;;;;;;;13.25;3.28;;;;;;;9.94;93.91;100024.41;5050507;28;20372;-47
2023/01/04 09:21:33;;;;;;;17.92;4.88;;;;;;;9.95;93.83;100012.19;5038251;28;20057;-49
2023/01/04 09:24:00;;;;;;;17.60;4.13;;;;;;;9.94;93.91;100042.94;5047692;28;20052;-48
2023/01/04 09:26:26;;;;;;;16.63;4.25;;;;;;;9.93;93.88;100039.38;5048436;28;20395;-49
2023/01/04 09:28:55;;;;;;;16.23;3.90;;;;;;;9.94;93.75;100041.00;5048346;28;20048;-50
2023/01/04 09:31:24;;;;;;;16.30;3.58;;;;;;;9.94;93.94;100042.94;5048410;28;20083;-50
2023/01/04 09:33:51;;;;;;;27.13;6.60;;;;;;;9.92;93.80;100048.84;5052542;28;20499;-47
2023/01/04 09:36:38;;;;;;;23.40;3.22;;;;;;;9.92;93.94;100039.75;5047481;28;20040;-54
2023/01/04 09:39:05;;;;;;;24.40;4.43;;;;;;;9.92;93.79;100045.28;5055071;28;20053;-48
2023/01/04 09:41:41;;;;;;;25.95;5.45;;;;;;;9.92;94.00;100037.78;5043959;28;20049;-47
2023/01/04 09:44:08;;;;;;;19.80;3.95;;;;;;;9.95;93.71;100050.91;5052549;28;20477;-52
2023/01/04 09:47:00;;;;;;;21.45;5.45;;;;;;;9.96;93.59;100063.56;5054582;28;20037;-49
2023/01/04 09:49:37;;;;;;;22.30;3.20;;;;;;;9.97;93.63;100056.88;5055044;28;20056;-48
2023/01/04 09:52:10;;;;;;;13.38;2.83;;;;;;;9.98;93.82;100061.22;5054936;28;20040;-51
2023/01/04 09:54:45;;;;;;;12.35;3.35;;;;;;;9.99;93.68;100046.25;5052610;28;20045;-50
2023/01/04 09:57:20;;;;;;;16.25;3.42;;;;;;;10.00;93.51;100042.34;5054988;28;20683;-50
2023/01/04 09:59:50;;;;;;;20.00;4.57;;;;;;;10.01;93.65;100060.50;5054932;28;20056;-49
2023/01/04 10:02:24;;;;;;;12.07;2.80;;;;;;;10.00;93.78;100036.81;5053355;28;20402;-48
2023/01/04 10:04:51;;;;;;;14.43;2.85;;;;;;;9.99;93.53;100059.25;5067648;28;20040;-48
2023/01/04 10:07:32;;;;;;;12.40;2.55;;;;;;;9.97;93.95;100054.09;5054789;28;20055;-52
2023/01/04 10:10:00;;;;;;;20.63;4.00;;;;;;;9.98;93.73;100055.69;5054111;28;20078;-47
2023/01/04 10:12:55;;;;;;;17.13;3.42;;;;;;;10.01;93.80;100049.44;5053899;28;20053;-47
2023/01/04 10:15:28;;;;;;;15.57;2.95;;;;;;;10.05;93.65;100044.03;5046202;28;20525;-48
2023/01/04 10:18:03;;;;;;;13.02;3.17;;;;;;;10.04;93.32;100057.03;5065716;28;20049;-50
2023/01/04 10:21:08;;;;;;;13.80;4.22;;;;;;;10.04;93.22;100054.28;5053844;28;20119;-50
2023/01/04 10:24:21;;;;;;;14.30;3.38;;;;;;;10.01;93.10;100043.91;5047248;28;20154;-52
2023/01/04 10:26:50;;;;;;;28.90;4.72;;;;;;;10.01;92.89;100023.75;5035452;28;20053;-50
2023/01/04 10:29:32;;;;;;;20.55;3.38;;;;;;;10.00;93.04;100053.41;5054457;28;20067;-50
2023/01/04 10:32:13;;;;;;;18.88;4.10;;;;;;;10.01;93.05;100054.97;5054706;28;20047;-46
2023/01/04 10:34:45;;;;;;;20.85;3.63;;;;;;;10.02;92.95;100067.66;5053738;28;20172;-47
2023/01/04 10:37:37;;;;;;;16.33;3.03;;;;;;;10.10;92.91;100099.88;5054484;28;20047;-50
2023/01/04 10:40:12;;;;;;;17.33;3.20;;;;;;;10.15;92.82;100096.84;5054365;28;20104;-49
2023/01/04 10:43:20;;;;;;;19.85;6.18;;;;;;;10.19;92.59;100092.19;5053636;28;20529;-50
2023/01/04 10:46:01;;;;;;;14.15;4.93;;;;;;;10.20;92.51;100118.72;4990757;28;20077;-49
2023/01/04 10:48:55;;;;;;;18.52;3.25;;;;;;;10.23;92.55;100122.72;4989992;28;20050;-50
2023/01/04 10:51:48;;;;;;;16.80;3.22;;;;;;;10.27;92.27;100118.09;5037611;28;20068;-49
2023/01/04 10:54:28;;;;;;;20.00;3.20;;;;;;;10.33;92.28;100139.59;5028709;28;20055;-52
2023/01/04 10:57:13;;;;;;;14.55;3.15;;;;;;;10.39;92.12;100140.13;5051184;28;20068;-51
2023/01/04 10:59:48;;;;;;;26.77;4.30;;;;;;;10.43;92.05;100138.25;5050967;28;20055;-50
2023/01/04 11:02:45;;;;;;;13.27;3.30;;;;;;;10.48;91.69;100139.94;5050028;28;20518;-50
2023/01/04 11:05:29;;;;;;;15.23;3.30;;;;;;;10.48;91.25;100148.25;5050181;28;20139;-51
2023/01/04 11:08:14;;;;;;;18.10;3.60;;;;;;;10.49;91.56;100150.63;5051422;28;20055;-52
2023/01/04 11:10:47;;;;;;;20.13;5.13;;;;;;;10.52;91.36;100160.19;5051001;28;20069;-52
2023/01/04 11:13:13;;;;;;;16.00;2.55;;;;;;;10.56;91.29;100152.78;5049720;28;20056;-50
2023/01/04 11:15:42;;;;;;;10.82;3.03;;;;;;;10.60;91.19;100153.66;5048144;28;20051;-50
2023/01/04 11:18:10;;;;;;;21.13;5.93;;;;;;;10.64;90.95;100147.06;5057118;28;20048;-50
2023/01/04 11:20:38;;;;;;;9.48;2.47;;;;;;;10.68;90.83;100158.19;5045749;28;20094;-50
2023/01/04 11:23:14;;;;;;;17.25;3.15;;;;;;;10.70;90.59;100159.44;5049652;28;20060;-52
2023/01/04 11:26:12;;;;;;;19.55;3.75;;;;;;;10.70;90.26;100175.25;5049534;28;20044;-49
2023/01/04 11:29:06;;;;;;;20.90;3.75;;;;;;;10.69;90.19;100173.66;5045749;28;20151;-49
2023/01/04 11:31:35;;;;;;;20.88;3.83;;;;;;;10.69;90.09;100184.72;5050582;28;20111;-49
2023/01/04 11:34:03;;;;;;;18.25;4.07;;;;;;;10.72;90.33;100170.94;5055545;28;20148;-52
2023/01/04 11:36:29;;;;;;;18.40;3.92;;;;;;;10.74;90.02;100171.41;5048147;28;20045;-53
2023/01/04 11:38:57;;;;;;;17.38;2.58;;;;;;;10.79;89.92;100162.84;5049357;28;20520;-50
2023/01/04 11:41:25;;;;;;;18.58;4.13;;;;;;;10.80;89.62;100175.50;5050539;28;20040;-49
2023/01/04 11:43:57;;;;;;;14.30;4.75;;;;;;;10.85;89.80;100157.81;5048768;28;20047;-51
2023/01/04 11:46:25;;;;;;;21.33;4.97;;;;;;;10.90;89.71;100171.38;5050567;28;20423;-49
2023/01/04 11:48:52;;;;;;;18.08;3.88;;;;;;;11.00;89.63;100179.13;5050315;28;20045;-51
2023/01/04 11:51:25;;;;;;;16.52;4.70;;;;;;;11.05;89.21;100178.84;5049809;28;20136;-52
2023/01/04 11:54:13;;;;;;;18.52;3.83;;;;;;;11.01;88.78;100169.66;5040320;28;20128;-54
2023/01/04 11:57:00;;;;;;;15.25;3.95;;;;;;;10.97;88.58;100171.53;5049771;28;20514;-52
2023/01/04 11:59:36;;;;;;;26.35;4.00;;;;;;;10.91;88.18;100164.66;5050056;28;20288;-55
2023/01/04 12:02:22;;;;;;;19.35;5.90;;;;;;;10.90;88.31;100149.22;5049805;28;20499;-53
2023/01/04 12:05:20;;;;;;;21.23;3.78;;;;;;;10.91;88.32;100148.03;5042733;28;20131;-50
2023/01/04 12:07:56;;;;;;;21.73;4.35;;;;;;;10.96;88.12;100156.09;5049761;28;20414;-55
2023/01/04 12:10:25;;;;;;;10.20;3.13;;;;;;;10.93;87.76;100152.06;5049083;28;20447;-49
2023/01/04 12:12:54;;;;;;;19.88;4.68;;;;;;;10.94;87.92;100163.94;5048967;28;20073;-52
2023/01/04 12:15:44;;;;;;;18.98;4.20;;;;;;;10.88;87.65;100159.88;5049465;28;20052;-48
2023/01/04 12:18:25;;;;;;;22.73;3.78;;;;;;;10.83;87.83;100166.47;5060508;28;20049;-48
2023/01/04 12:20:52;;;;;;;18.92;3.30;;;;;;;10.85;88.09;100178.00;5048702;28;20163;-48
2023/01/04 12:23:19;;;;;;;11.70;3.83;;;;;;;10.87;87.66;100181.22;5047883;28;20379;-54
2023/01/04 12:25:50;;;;;;;16.50;3.95;;;;;;;10.87;87.55;100178.44;5047679;28;20149;-51
2023/01/04 12:28:35;;;;;;;18.55;4.50;;;;;;;10.86;87.53;100187.09;5049800;28;20135;-54
2023/01/04 12:31:32;;;;;;;18.85;3.35;;;;;;;10.92;87.70;100174.59;5036940;28;20398;-51
2023/01/04 12:34:22;;;;;;;12.82;2.85;;;;;;;10.91;87.43;100192.34;5047042;28;20053;-50